Huvudsida
METAR-TAF:

METAR-TAF

Flygplatser :

Al Udeid, Qatar

latitud: 25-07N, longitud: 051-18E, höjd: 42 m

Aktuellt väderrapport

Denna rapport gjordes för 56 minuter sedan, klockan 13:56 UTC
Vind 11 kt från nord
Temperatur 43°C
Fuktighet 21%
Tryck 1000 hPa
Sikt: 9000 m
Klar himmel
torrdis

METAR: OTBH 261356Z 01011KT 9000 HZ CLR 43/16 A2952 RMK AO2A SLP997 WND DATA ESTMD ALSTG/SLP ESTMD

Tid: 17:52 (14:52 UTC)

Väderprognos

Denna rapport gjordes för 1 timme och 27 minuter sedan, klockan 13:25 UTC
Prognos gäller från 26 kl. 13 UTC till 27 kl. 14 UTC
Vind 12 kt från nord/nordost
Sikt: 9000 m
Klar himmel
torrdis
Temporärt
från 26 kl. 13 UTC till 26 kl. 14 UTC
Vind 15 kt från nord i byarna ända upp till 25 kt
Sikt: 8000 m
torrdis
Blir
från 26 kl. 16 UTC till 26 kl. 17 UTC
Vind 9 kt från nord/nordväst
Sikt: 9000 m
Klar himmel
torrdis

TAF: OTBH 261325Z 2613/2714 02012KT 9000 HZ SKC QNH2950INS TEMPO 2613/2614 36015G25KT 8000 HZ BECMG 2616/2617 33009KT 9000 HZ SKC QNH2951INS TX48/2711Z TN30/2700Z

Aktuella väderrapporter och prognoser från 4000 flygplatser (METAR- och TAF-rapporter).

De tillgängliga stationerna syns som gula och röda prickar på kartan.

För musen över prickarna för att se namnen på stationerna.

Klicka sedan för att få väderrapporter och prognoser.

För att ändra kartan: Klicka på de gröna knapparna med ett svart kors på för att zooma in; den gröna knappen med ett streck på för att zooma ut; eller på de gröna pilarna för angränsande kartor.


METAR-TAF: